createdAt,value
2023-05-19T00:01:45.377Z,10.31
2023-05-19T00:04:15.586Z,10.30
2023-05-19T00:06:44.748Z,10.31
2023-05-19T00:09:12.922Z,10.34
2023-05-19T00:11:41.939Z,10.30
2023-05-19T00:14:10.704Z,10.23
2023-05-19T00:16:39.327Z,10.21
2023-05-19T00:19:10.049Z,10.22
2023-05-19T00:21:40.208Z,10.26
2023-05-19T00:24:08.424Z,10.23
2023-05-19T00:26:36.316Z,10.20
2023-05-19T00:29:06.352Z,10.12
2023-05-19T00:31:34.878Z,10.06
2023-05-19T00:34:02.879Z,10.00
2023-05-19T00:36:30.982Z,9.97
2023-05-19T00:39:00.237Z,9.94
2023-05-19T00:41:29.869Z,9.89
2023-05-19T00:43:57.652Z,9.95
2023-05-19T00:46:25.951Z,9.98
2023-05-19T00:48:53.857Z,10.05
2023-05-19T00:51:21.920Z,9.94
2023-05-19T00:53:51.983Z,9.80
2023-05-19T00:56:22.468Z,9.67
2023-05-19T00:58:52.155Z,9.67
2023-05-19T01:01:21.515Z,9.73
2023-05-19T01:03:51.346Z,9.71
2023-05-19T01:06:20.884Z,9.83
2023-05-19T01:08:49.896Z,9.78
2023-05-19T01:11:17.766Z,9.63
2023-05-19T01:13:47.053Z,9.71
2023-05-19T01:16:20.543Z,9.55
2023-05-19T01:18:56.156Z,9.56
2023-05-19T01:22:06.755Z,9.65
2023-05-19T01:25:08.833Z,9.69
2023-05-19T01:28:07.000Z,9.69
2023-05-19T01:30:38.306Z,9.77
2023-05-19T01:33:09.038Z,9.75
2023-05-19T01:35:38.127Z,9.70
2023-05-19T01:38:09.872Z,9.74
2023-05-19T01:40:38.243Z,9.71
2023-05-19T01:43:06.169Z,9.73
2023-05-19T01:45:36.125Z,9.76
2023-05-19T01:48:07.787Z,9.71
2023-05-19T01:50:37.178Z,9.55
2023-05-19T01:53:05.099Z,9.50
2023-05-19T01:55:36.239Z,9.40
2023-05-19T01:58:12.128Z,9.47
2023-05-19T02:00:50.424Z,9.43
2023-05-19T02:03:31.017Z,9.42
2023-05-19T02:06:04.504Z,9.49
2023-05-19T02:08:43.342Z,9.45
2023-05-19T02:11:16.120Z,9.51
2023-05-19T02:13:45.698Z,9.51
2023-05-19T02:16:15.658Z,9.55
2023-05-19T02:18:45.430Z,9.55
2023-05-19T02:21:13.820Z,9.58
2023-05-19T02:23:42.274Z,9.60
2023-05-19T02:26:10.266Z,9.64
2023-05-19T02:28:38.130Z,9.64
2023-05-19T02:31:08.842Z,9.64
2023-05-19T02:33:38.060Z,9.61
2023-05-19T02:36:06.849Z,9.61
2023-05-19T02:38:34.709Z,9.56
2023-05-19T02:41:02.592Z,9.56
2023-05-19T02:43:31.410Z,9.60
2023-05-19T02:45:59.475Z,9.62
2023-05-19T02:48:28.034Z,9.53
2023-05-19T02:50:57.337Z,9.43
2023-05-19T02:53:25.564Z,9.41
2023-05-19T02:55:53.761Z,9.31
2023-05-19T02:58:21.664Z,9.36
2023-05-19T03:00:49.520Z,9.50
2023-05-19T03:03:18.129Z,9.53
2023-05-19T03:05:46.101Z,9.54
2023-05-19T03:08:15.519Z,9.43
2023-05-19T03:10:43.457Z,9.44
2023-05-19T03:13:11.403Z,9.44
2023-05-19T03:15:39.363Z,9.52
2023-05-19T03:18:07.369Z,9.48
2023-05-19T03:20:35.288Z,9.52
2023-05-19T03:23:03.225Z,9.52
2023-05-19T03:25:32.817Z,9.53
2023-05-19T03:28:00.718Z,9.58
2023-05-19T03:30:28.645Z,9.58
2023-05-19T03:33:07.539Z,9.57
2023-05-19T03:35:35.566Z,9.61
2023-05-19T03:38:03.737Z,9.68
2023-05-19T03:40:33.326Z,9.60
2023-05-19T03:43:06.173Z,9.59
2023-05-19T03:45:38.713Z,9.60
2023-05-19T03:48:24.359Z,9.67
2023-05-19T03:51:12.311Z,9.71
2023-05-19T03:53:41.258Z,9.71
2023-05-19T03:56:13.544Z,9.60
2023-05-19T03:58:43.444Z,9.69
2023-05-19T04:01:11.894Z,9.71
2023-05-19T04:03:39.976Z,9.82
2023-05-19T04:06:09.163Z,9.96
2023-05-19T04:08:36.965Z,9.88
2023-05-19T04:11:05.146Z,10.02
2023-05-19T04:13:35.051Z,10.15
2023-05-19T04:16:03.115Z,10.22
2023-05-19T04:18:31.138Z,10.33
2023-05-19T04:20:59.047Z,10.41
2023-05-19T04:23:26.965Z,10.40
2023-05-19T04:25:57.112Z,10.33
2023-05-19T04:28:25.262Z,10.26
2023-05-19T04:30:55.118Z,10.21
2023-05-19T04:33:23.066Z,10.38
2023-05-19T04:35:51.683Z,10.34
2023-05-19T04:38:20.143Z,10.37
2023-05-19T04:40:51.969Z,10.37
2023-05-19T04:43:22.168Z,10.34
2023-05-19T04:45:51.427Z,10.49
2023-05-19T04:48:23.047Z,10.52
2023-05-19T04:50:51.861Z,10.61
2023-05-19T04:53:21.681Z,10.60
2023-05-19T04:55:50.258Z,10.63
2023-05-19T04:58:18.329Z,10.66
2023-05-19T05:00:46.698Z,10.75
2023-05-19T05:03:15.162Z,10.81
2023-05-19T05:05:44.514Z,10.80
2023-05-19T05:08:12.511Z,10.86
2023-05-19T05:10:43.772Z,10.92
2023-05-19T05:13:12.340Z,11.12
2023-05-19T05:15:42.154Z,11.11
2023-05-19T05:18:11.789Z,11.07
2023-05-19T05:20:40.922Z,11.15
2023-05-19T05:23:14.348Z,10.98
2023-05-19T05:25:45.044Z,11.06
2023-05-19T05:28:13.543Z,11.26
2023-05-19T05:30:43.640Z,11.24
2023-05-19T05:33:11.825Z,11.31
2023-05-19T05:35:42.047Z,11.31
2023-05-19T05:38:13.675Z,11.26
2023-05-19T05:40:41.946Z,11.39
2023-05-19T05:43:10.496Z,11.43
2023-05-19T05:45:45.413Z,11.52
2023-05-19T05:48:14.003Z,11.64
2023-05-19T05:50:44.460Z,11.87
2023-05-19T05:53:18.872Z,12.07
2023-05-19T05:55:47.922Z,12.08
2023-05-19T05:58:17.000Z,12.33
2023-05-19T06:00:45.349Z,12.15
2023-05-19T06:03:14.501Z,12.37
2023-05-19T06:05:42.569Z,12.32
2023-05-19T06:08:11.227Z,12.37
2023-05-19T06:10:44.064Z,12.59
2023-05-19T06:13:13.878Z,12.55
2023-05-19T06:15:42.686Z,12.99
2023-05-19T06:18:18.099Z,12.95
2023-05-19T06:20:45.988Z,13.09
2023-05-19T06:23:13.877Z,13.20
2023-05-19T06:25:43.115Z,13.12
2023-05-19T06:28:11.103Z,13.48
2023-05-19T06:30:39.495Z,13.66
2023-05-19T06:33:39.788Z,14.00
2023-05-19T06:36:10.010Z,14.05
2023-05-19T06:38:39.971Z,13.99
2023-05-19T06:41:09.653Z,14.17
2023-05-19T06:43:38.378Z,14.42
2023-05-19T06:46:06.431Z,14.46
2023-05-19T06:48:34.858Z,14.29
2023-05-19T06:51:03.943Z,14.40
2023-05-19T06:53:34.927Z,14.42
2023-05-19T06:56:09.094Z,14.77
2023-05-19T06:58:39.760Z,15.03
2023-05-19T07:01:08.078Z,15.07
2023-05-19T07:03:42.712Z,15.47
2023-05-19T07:06:12.543Z,15.60
2023-05-19T07:08:40.481Z,15.99
2023-05-19T07:11:12.332Z,15.73
2023-05-19T07:13:41.441Z,16.32
2023-05-19T07:16:09.731Z,16.52
2023-05-19T07:18:37.718Z,17.15
2023-05-19T07:21:07.228Z,17.80
2023-05-19T07:23:35.191Z,18.33
2023-05-19T07:26:03.254Z,18.14
2023-05-19T07:28:32.463Z,18.08
2023-05-19T07:31:00.698Z,18.38
2023-05-19T07:33:28.618Z,18.71
2023-05-19T07:35:56.631Z,18.63
2023-05-19T07:38:24.533Z,20.16
2023-05-19T07:40:52.549Z,20.63
2023-05-19T07:43:20.437Z,22.61
2023-05-19T07:45:49.734Z,23.09
2023-05-19T07:48:18.770Z,24.11
2023-05-19T07:50:46.773Z,23.50
2023-05-19T07:53:14.814Z,23.45
2023-05-19T07:55:42.756Z,22.00
2023-05-19T07:58:10.647Z,21.75
2023-05-19T08:00:38.624Z,23.20
2023-05-19T08:03:08.252Z,23.68
2023-05-19T08:05:36.321Z,23.19
2023-05-19T08:08:04.352Z,25.27
2023-05-19T08:10:32.464Z,26.59
2023-05-19T08:13:00.529Z,24.88
2023-05-19T08:15:28.487Z,24.41
2023-05-19T08:17:56.408Z,24.19
2023-05-19T08:20:25.793Z,24.18
2023-05-19T08:22:53.687Z,26.67
2023-05-19T08:25:21.713Z,24.61
2023-05-19T08:27:49.647Z,23.88
2023-05-19T08:30:17.628Z,23.10
2023-05-19T08:32:45.531Z,23.79
2023-05-19T08:35:13.510Z,23.73
2023-05-19T08:37:42.820Z,23.87
2023-05-19T08:40:13.483Z,24.46
2023-05-19T08:42:41.383Z,24.32
2023-05-19T08:45:10.021Z,24.03
2023-05-19T08:47:38.004Z,23.40
2023-05-19T08:50:09.883Z,22.13
2023-05-19T08:52:47.867Z,22.73
2023-05-19T08:55:26.003Z,23.56
2023-05-19T08:57:54.206Z,23.57
2023-05-19T09:00:22.489Z,23.74
2023-05-19T09:03:00.946Z,23.25
2023-05-19T09:05:34.648Z,23.80
2023-05-19T09:08:04.876Z,22.77
2023-05-19T09:10:32.728Z,22.49
2023-05-19T09:13:00.684Z,22.52
2023-05-19T09:15:29.262Z,21.60
2023-05-19T09:18:10.440Z,22.51
2023-05-19T09:20:40.148Z,23.29
2023-05-19T09:23:13.652Z,24.33
2023-05-19T09:25:48.150Z,23.88
2023-05-19T09:28:16.348Z,24.22
2023-05-19T09:30:44.286Z,24.68
2023-05-19T09:33:12.782Z,24.37
2023-05-19T09:35:40.732Z,23.16
2023-05-19T09:38:10.999Z,23.35
2023-05-19T09:40:38.836Z,25.40
2023-05-19T09:43:09.001Z,23.95
2023-05-19T09:45:37.200Z,24.36
2023-05-19T09:48:05.656Z,25.48
2023-05-19T09:50:33.950Z,25.56
2023-05-19T09:53:01.937Z,25.68
2023-05-19T09:55:33.008Z,24.46
2023-05-19T09:58:04.057Z,24.82
2023-05-19T10:00:34.068Z,25.53
2023-05-19T10:03:03.127Z,25.46
2023-05-19T10:05:31.625Z,25.13
2023-05-19T10:08:00.312Z,24.18
2023-05-19T10:10:28.822Z,23.17
2023-05-19T10:13:00.170Z,23.75
2023-05-19T10:15:28.421Z,22.80
2023-05-19T10:17:56.945Z,22.31
2023-05-19T10:20:25.012Z,23.26
2023-05-19T10:22:52.986Z,23.26
2023-05-19T10:25:21.138Z,22.74
2023-05-19T10:27:53.173Z,23.40
2023-05-19T10:30:27.666Z,24.34
2023-05-19T10:32:57.949Z,24.10
2023-05-19T10:35:48.631Z,22.13
2023-05-19T10:38:26.075Z,21.60
2023-05-19T10:41:01.575Z,22.29
2023-05-19T10:43:38.667Z,22.16
2023-05-19T10:46:08.113Z,21.63
2023-05-19T10:48:37.090Z,20.81
2023-05-19T10:51:06.271Z,20.14
2023-05-19T10:53:35.120Z,20.28
2023-05-19T10:56:04.154Z,20.45
2023-05-19T10:58:40.096Z,20.60
2023-05-19T11:01:11.002Z,20.51
2023-05-19T11:03:49.079Z,21.49
2023-05-19T11:06:21.594Z,21.96
2023-05-19T11:08:54.409Z,22.00
2023-05-19T11:11:23.382Z,21.97
2023-05-19T11:13:56.107Z,21.06
2023-05-19T11:16:33.376Z,21.24
2023-05-19T11:19:01.686Z,20.99
2023-05-19T11:21:42.809Z,21.20
2023-05-19T11:24:10.907Z,21.45
2023-05-19T11:26:42.917Z,21.92
2023-05-19T11:29:11.561Z,21.50
2023-05-19T11:31:41.273Z,21.68
2023-05-19T11:34:09.270Z,21.04
2023-05-19T11:36:38.104Z,21.21
2023-05-19T11:39:07.131Z,20.92
2023-05-19T11:41:40.549Z,21.54
2023-05-19T11:44:11.293Z,21.46
2023-05-19T11:46:40.754Z,21.67
2023-05-19T11:49:08.857Z,21.84
2023-05-19T11:51:38.297Z,20.98
2023-05-19T11:54:06.815Z,20.57
2023-05-19T11:56:35.803Z,21.25
2023-05-19T11:59:03.740Z,21.17
2023-05-19T12:01:31.965Z,20.76
2023-05-19T12:04:01.443Z,20.95
2023-05-19T12:06:29.867Z,21.53
2023-05-19T12:08:59.201Z,21.40
2023-05-19T12:11:29.558Z,20.91
2023-05-19T12:14:00.266Z,21.22
2023-05-19T12:16:34.529Z,21.14
2023-05-19T12:19:06.644Z,22.31
2023-05-19T12:21:34.676Z,23.00
2023-05-19T12:24:02.802Z,22.30
2023-05-19T12:26:30.681Z,21.46
2023-05-19T12:28:59.725Z,21.13
2023-05-19T12:31:27.871Z,21.14
2023-05-19T12:33:56.858Z,21.18
2023-05-19T12:36:27.057Z,20.73
2023-05-19T12:38:55.587Z,20.38
2023-05-19T12:41:25.438Z,20.51
2023-05-19T12:43:53.764Z,20.72
2023-05-19T12:46:22.504Z,21.12
2023-05-19T12:48:51.573Z,21.04
2023-05-19T12:51:19.982Z,20.52
2023-05-19T12:53:51.377Z,19.99
2023-05-19T12:56:19.542Z,20.06
2023-05-19T12:58:47.672Z,20.81
2023-05-19T13:01:19.237Z,20.49
2023-05-19T13:03:47.561Z,21.08
2023-05-19T13:06:15.846Z,21.72
2023-05-19T13:08:43.780Z,21.41
2023-05-19T13:11:13.077Z,21.30
2023-05-19T13:13:41.066Z,21.21
2023-05-19T13:16:09.183Z,22.17
2023-05-19T13:18:38.341Z,22.77
2023-05-19T13:21:06.670Z,22.24
2023-05-19T13:23:35.073Z,20.77
2023-05-19T13:26:04.974Z,20.92
2023-05-19T13:28:34.859Z,20.88
2023-05-19T13:31:02.977Z,20.63
2023-05-19T13:33:31.011Z,20.98
2023-05-19T13:35:58.983Z,20.57
2023-05-19T13:38:26.929Z,20.27
2023-05-19T13:40:54.900Z,19.70
2023-05-19T13:43:22.947Z,19.99
2023-05-19T13:45:52.329Z,19.88
2023-05-19T13:48:20.482Z,19.82
2023-05-19T13:50:48.537Z,19.96
2023-05-19T13:53:16.485Z,19.94
2023-05-19T13:55:44.550Z,20.06
2023-05-19T13:58:14.324Z,19.84
2023-05-19T14:00:42.275Z,19.79
2023-05-19T14:03:11.755Z,19.96
2023-05-19T14:05:39.867Z,20.24
2023-05-19T14:08:07.735Z,20.23
2023-05-19T14:10:35.998Z,20.10
2023-05-19T14:13:29.718Z,19.86
2023-05-19T14:15:52.463Z,19.91
2023-05-19T14:18:21.877Z,19.71
2023-05-19T14:20:49.787Z,19.90
2023-05-19T14:23:19.909Z,19.79
2023-05-19T14:25:47.883Z,20.07
2023-05-19T14:28:15.734Z,20.10
2023-05-19T14:30:44.201Z,19.96
2023-05-19T14:33:12.156Z,19.82
2023-05-19T14:35:41.547Z,19.68
2023-05-19T14:38:09.556Z,19.74
2023-05-19T14:40:37.793Z,19.48
2023-05-19T14:43:05.734Z,19.69
2023-05-19T14:45:33.633Z,19.90
2023-05-19T14:48:01.505Z,19.85
2023-05-19T14:50:29.556Z,19.92
2023-05-19T14:52:59.022Z,19.97
2023-05-19T14:55:26.926Z,19.87
2023-05-19T14:57:54.777Z,19.71
2023-05-19T15:00:22.684Z,19.52
2023-05-19T15:02:51.632Z,19.43
2023-05-19T15:05:19.611Z,19.36
2023-05-19T15:07:47.462Z,19.26
2023-05-19T15:10:16.957Z,19.10
2023-05-19T15:12:44.863Z,19.03
2023-05-19T15:15:12.825Z,18.96
2023-05-19T15:17:41.064Z,18.72
2023-05-19T15:20:09.727Z,18.80
2023-05-19T15:22:37.636Z,19.03
2023-05-19T15:25:06.303Z,19.40
2023-05-19T15:27:37.166Z,19.52
2023-05-19T15:30:05.570Z,19.45
2023-05-19T15:32:34.758Z,20.09
2023-05-19T15:35:02.644Z,20.74
2023-05-19T15:37:30.579Z,20.99
2023-05-19T15:39:58.589Z,21.31
2023-05-19T15:42:26.642Z,21.51
2023-05-19T15:44:55.919Z,20.44
2023-05-19T15:47:23.957Z,19.45
2023-05-19T15:49:51.872Z,19.28
2023-05-19T15:52:19.845Z,19.04
2023-05-19T15:54:48.686Z,18.87
2023-05-19T15:57:16.742Z,19.07
2023-05-19T15:59:44.943Z,19.01
2023-05-19T16:02:14.380Z,19.13
2023-05-19T16:04:42.466Z,19.00
2023-05-19T16:07:10.378Z,18.73
2023-05-19T16:09:38.253Z,18.64
2023-05-19T16:12:06.797Z,18.46
2023-05-19T16:14:36.546Z,18.51
2023-05-19T16:17:04.721Z,18.54
2023-05-19T16:19:34.212Z,18.99
2023-05-19T16:22:02.152Z,18.95
2023-05-19T16:24:30.008Z,18.85
2023-05-19T16:26:57.966Z,18.74
2023-05-19T16:29:26.001Z,18.59
2023-05-19T16:31:54.015Z,18.27
2023-05-19T16:34:21.954Z,18.15
2023-05-19T16:36:51.297Z,18.32
2023-05-19T16:39:19.225Z,18.38
2023-05-19T16:41:47.092Z,18.66
2023-05-19T16:44:15.044Z,18.69
2023-05-19T16:46:43.186Z,18.96
2023-05-19T16:49:11.272Z,18.62
2023-05-19T16:51:39.127Z,18.44
2023-05-19T16:54:08.375Z,18.34
2023-05-19T16:56:36.300Z,18.34
2023-05-19T16:59:04.210Z,18.12
2023-05-19T17:01:32.636Z,18.08
2023-05-19T17:04:00.688Z,17.96
2023-05-19T17:06:28.593Z,18.12
2023-05-19T17:08:56.452Z,18.09
2023-05-19T17:11:26.697Z,18.15
2023-05-19T17:13:54.722Z,17.86
2023-05-19T17:16:23.368Z,17.88
2023-05-19T17:18:51.478Z,17.79
2023-05-19T17:21:19.545Z,17.87
2023-05-19T17:23:47.557Z,17.76
2023-05-19T17:26:15.828Z,17.68
2023-05-19T17:28:45.169Z,17.74
2023-05-19T17:31:13.655Z,17.61
2023-05-19T17:33:42.109Z,17.67
2023-05-19T17:36:10.068Z,17.58
2023-05-19T17:38:40.233Z,17.60
2023-05-19T17:41:10.720Z,17.58
2023-05-19T17:43:39.052Z,17.55
2023-05-19T17:46:08.951Z,17.48
2023-05-19T17:48:37.193Z,17.43
2023-05-19T17:51:07.046Z,17.44
2023-05-19T17:53:36.544Z,17.48
2023-05-19T17:56:07.244Z,17.42
2023-05-19T17:58:36.022Z,17.38
2023-05-19T18:01:04.250Z,17.30
2023-05-19T18:03:34.554Z,17.34
2023-05-19T18:06:02.714Z,17.24
2023-05-19T18:08:32.066Z,17.21
2023-05-19T18:11:00.352Z,17.10
2023-05-19T18:13:28.270Z,17.07
2023-05-19T18:15:57.706Z,16.99
2023-05-19T18:18:25.665Z,17.08
2023-05-19T18:20:54.945Z,16.94
2023-05-19T18:23:22.818Z,16.92
2023-05-19T18:25:51.697Z,16.82
2023-05-19T18:28:19.616Z,16.84
2023-05-19T18:30:47.559Z,16.73
2023-05-19T18:33:15.462Z,16.72
2023-05-19T18:35:43.375Z,16.69
2023-05-19T18:38:12.601Z,16.58
2023-05-19T18:40:43.892Z,16.55
2023-05-19T18:43:11.782Z,16.55
2023-05-19T18:45:39.816Z,16.58
2023-05-19T18:48:08.207Z,16.58
2023-05-19T18:50:36.460Z,16.43
2023-05-19T18:53:04.510Z,16.17
2023-05-19T18:55:34.033Z,16.16
2023-05-19T18:58:02.536Z,16.08
2023-05-19T19:00:30.927Z,15.97
2023-05-19T19:03:01.729Z,15.94
2023-05-19T19:05:29.759Z,15.89
2023-05-19T19:07:57.748Z,15.85
2023-05-19T19:10:25.773Z,15.87
2023-05-19T19:12:55.220Z,15.80
2023-05-19T19:15:23.153Z,15.73
2023-05-19T19:17:51.341Z,15.71
2023-05-19T19:20:19.388Z,15.73
2023-05-19T19:22:47.359Z,15.72
2023-05-19T19:25:15.545Z,15.64
2023-05-19T19:27:43.519Z,15.60
2023-05-19T19:30:13.468Z,15.69
2023-05-19T19:32:41.303Z,15.62
2023-05-19T19:35:10.327Z,15.59
2023-05-19T19:37:38.388Z,15.53
2023-05-19T19:40:08.126Z,15.61
2023-05-19T19:42:38.224Z,15.50
2023-05-19T19:45:07.393Z,15.46
2023-05-19T19:47:36.882Z,15.44
2023-05-19T19:50:05.807Z,15.44
2023-05-19T19:52:33.866Z,15.41
2023-05-19T19:55:01.760Z,15.42
2023-05-19T19:57:31.611Z,15.35
2023-05-19T20:00:07.452Z,15.35
2023-05-19T20:02:48.388Z,15.32
2023-05-19T20:05:27.222Z,15.26
2023-05-19T20:07:55.293Z,15.17
2023-05-19T20:10:23.317Z,15.21
2023-05-19T20:12:51.767Z,15.21
2023-05-19T20:15:19.974Z,15.17
2023-05-19T20:17:49.308Z,15.04
2023-05-19T20:20:17.625Z,14.98
2023-05-19T20:22:45.959Z,14.91
2023-05-19T20:25:13.964Z,14.93
2023-05-19T20:27:41.864Z,14.93
2023-05-19T20:30:10.600Z,14.90
2023-05-19T20:32:38.934Z,14.84
2023-05-19T20:35:09.240Z,14.80
2023-05-19T20:37:37.190Z,14.80
2023-05-19T20:40:06.197Z,14.71
2023-05-19T20:42:34.244Z,14.85
2023-05-19T20:45:03.013Z,14.83
2023-05-19T20:47:31.169Z,14.76
2023-05-19T20:49:59.620Z,14.73
2023-05-19T20:52:28.972Z,14.74
2023-05-19T20:54:56.842Z,14.67
2023-05-19T20:57:27.171Z,14.59
2023-05-19T20:59:56.769Z,14.55
2023-05-19T21:02:24.700Z,14.53
2023-05-19T21:04:52.884Z,14.43
2023-05-19T21:07:20.897Z,14.32
2023-05-19T21:09:51.432Z,14.38
2023-05-19T21:12:23.808Z,14.36
2023-05-19T21:14:52.002Z,14.32
2023-05-19T21:17:21.014Z,14.29
2023-05-19T21:19:50.579Z,14.29
2023-05-19T21:22:18.860Z,14.32
2023-05-19T21:24:46.876Z,14.33
2023-05-19T21:27:16.248Z,14.35
2023-05-19T21:29:44.223Z,14.31
2023-05-19T21:32:12.242Z,14.23
2023-05-19T21:34:40.762Z,14.15
2023-05-19T21:37:08.648Z,14.14
2023-05-19T21:39:36.534Z,14.13
2023-05-19T21:42:04.814Z,14.01
2023-05-19T21:44:34.081Z,14.08
2023-05-19T21:47:01.987Z,14.04
2023-05-19T21:49:29.865Z,14.02
2023-05-19T21:51:57.719Z,14.00
2023-05-19T21:54:25.802Z,14.02
2023-05-19T21:56:53.698Z,13.90
2023-05-19T21:59:23.174Z,13.91
2023-05-19T22:01:52.839Z,13.81
2023-05-19T22:04:21.228Z,13.87
2023-05-19T22:06:49.444Z,13.78
2023-05-19T22:09:18.008Z,13.74
2023-05-19T22:11:46.270Z,13.77
2023-05-19T22:14:14.774Z,13.74
2023-05-19T22:16:42.965Z,13.57
2023-05-19T22:19:12.621Z,13.64
2023-05-19T22:21:40.677Z,13.62
2023-05-19T22:24:08.642Z,13.64
2023-05-19T22:26:36.569Z,13.62
2023-05-19T22:29:04.426Z,13.57
2023-05-19T22:31:32.422Z,13.51
2023-05-19T22:34:00.468Z,13.50
2023-05-19T22:36:29.813Z,13.39
2023-05-19T22:38:57.810Z,13.34
2023-05-19T22:41:25.775Z,13.36
2023-05-19T22:43:53.703Z,13.34
2023-05-19T22:46:21.670Z,13.36
2023-05-19T22:48:49.829Z,13.32
2023-05-19T22:51:17.732Z,13.25
2023-05-19T22:53:48.448Z,13.19
2023-05-19T22:56:17.607Z,13.23
2023-05-19T22:58:45.758Z,13.13
2023-05-19T23:01:13.756Z,13.03
2023-05-19T23:03:41.750Z,13.08
2023-05-19T23:06:09.644Z,13.09
2023-05-19T23:08:37.623Z,13.06
2023-05-19T23:11:07.282Z,13.02
2023-05-19T23:13:35.176Z,13.09
2023-05-19T23:16:03.049Z,13.01
2023-05-19T23:18:31.142Z,12.97
2023-05-19T23:20:59.170Z,12.94
2023-05-19T23:23:27.679Z,12.93
2023-05-19T23:25:57.090Z,12.86
2023-05-19T23:28:26.437Z,12.78
2023-05-19T23:30:54.523Z,12.68
2023-05-19T23:33:22.537Z,12.66
2023-05-19T23:35:50.777Z,12.59
2023-05-19T23:38:18.700Z,12.67
2023-05-19T23:40:46.635Z,12.54
2023-05-19T23:43:14.610Z,12.55
2023-05-19T23:45:44.120Z,12.57
2023-05-19T23:48:12.158Z,12.45
2023-05-19T23:50:40.148Z,12.43
2023-05-19T23:53:08.217Z,12.25
2023-05-19T23:55:36.306Z,12.32
2023-05-19T23:58:04.372Z,12.41
